createdAt,value
2018-06-04T00:01:27.663Z,101454.55
2018-06-04T00:03:56.317Z,101450.11
2018-06-04T00:06:24.990Z,101449.64
2018-06-04T00:08:53.610Z,101448.27
2018-06-04T00:11:22.272Z,101457.09
2018-06-04T00:13:51.208Z,101459.17
2018-06-04T00:16:19.860Z,101461.81
2018-06-04T00:18:48.548Z,101460.44
2018-06-04T00:21:17.255Z,101463.06
2018-06-04T00:23:45.849Z,101454.64
2018-06-04T00:26:14.542Z,101452.91
2018-06-04T00:28:43.201Z,101451.59
2018-06-04T00:31:11.868Z,101464.91
2018-06-04T00:33:40.461Z,101456.97
2018-06-04T00:36:09.169Z,101453.44
2018-06-04T00:38:37.827Z,101453.47
2018-06-04T00:41:07.185Z,101449.06
2018-06-04T00:43:35.800Z,101439.31
2018-06-04T00:46:04.504Z,101437.05
2018-06-04T00:48:33.219Z,101437.01
2018-06-04T00:51:01.863Z,101437.38
2018-06-04T00:53:30.573Z,101435.51
2018-06-04T00:56:10.332Z,101431.84
2018-06-04T00:58:38.987Z,101430.48
2018-06-04T01:01:07.574Z,101438.88
2018-06-04T01:03:36.220Z,101436.21
2018-06-04T01:06:04.818Z,101437.48
2018-06-04T01:08:33.561Z,101437.89
2018-06-04T01:11:02.226Z,101442.27
2018-06-04T01:13:30.897Z,101446.25
2018-06-04T01:15:59.483Z,101437.83
2018-06-04T01:18:28.177Z,101432.51
2018-06-04T01:20:57.105Z,101432.97
2018-06-04T01:23:25.755Z,101437.81
2018-06-04T01:25:54.316Z,101435.18
2018-06-04T01:28:22.956Z,101434.71
2018-06-04T01:30:51.622Z,101431.19
2018-06-04T01:33:20.285Z,101428.53
2018-06-04T01:35:48.878Z,101429.82
2018-06-04T01:38:17.457Z,101423.09
2018-06-04T01:40:46.005Z,101426.58
2018-06-04T01:43:14.617Z,101429.08
2018-06-04T01:45:43.213Z,101424.19
2018-06-04T01:48:11.913Z,101422.91
2018-06-04T01:50:40.606Z,101423.86
2018-06-04T01:53:09.317Z,101424.31
2018-06-04T01:55:38.196Z,101425.56
2018-06-04T01:58:06.862Z,101425.92
2018-06-04T02:00:35.570Z,101417.97
2018-06-04T02:03:04.250Z,101422.89
2018-06-04T02:05:32.923Z,101418.50
2018-06-04T02:08:01.597Z,101409.16
2018-06-04T02:10:30.230Z,101412.27
2018-06-04T02:12:58.918Z,101415.34
2018-06-04T02:15:42.842Z,101409.48
2018-06-04T02:18:11.521Z,101408.48
2018-06-04T02:20:40.196Z,101416.76
2018-06-04T02:23:08.878Z,101408.27
2018-06-04T02:25:37.628Z,101405.11
2018-06-04T02:28:06.344Z,101406.94
2018-06-04T02:30:49.816Z,101401.24
2018-06-04T02:33:19.062Z,101400.75
2018-06-04T02:35:47.657Z,101397.97
2018-06-04T02:38:16.279Z,101397.08
2018-06-04T02:40:44.943Z,101402.42
2018-06-04T02:43:13.557Z,101404.68
2018-06-04T02:45:42.212Z,101405.59
2018-06-04T02:48:11.654Z,101402.05
2018-06-04T02:50:40.322Z,101408.61
2018-06-04T02:53:09.047Z,101406.85
2018-06-04T02:55:37.618Z,101408.67
2018-06-04T02:58:06.239Z,101405.63
2018-06-04T03:00:34.833Z,101402.56
2018-06-04T03:03:03.411Z,101399.03
2018-06-04T03:05:32.161Z,101397.25
2018-06-04T03:08:00.910Z,101399.00
2018-06-04T03:10:29.602Z,101394.59
2018-06-04T03:12:58.200Z,101401.20
2018-06-04T03:15:27.400Z,101397.13
2018-06-04T03:17:56.004Z,101391.32
2018-06-04T03:20:24.566Z,101388.23
2018-06-04T03:22:53.222Z,101386.08
2018-06-04T03:25:21.815Z,101383.49
2018-06-04T03:27:50.415Z,101381.80
2018-06-04T03:30:19.009Z,101385.38
2018-06-04T03:32:47.746Z,101389.35
2018-06-04T03:35:16.356Z,101391.16
2018-06-04T03:37:45.014Z,101390.27
2018-06-04T03:40:13.585Z,101390.76
2018-06-04T03:42:42.246Z,101385.91
2018-06-04T03:45:10.879Z,101395.21
2018-06-04T03:47:39.480Z,101389.06
2018-06-04T03:50:08.209Z,101385.04
2018-06-04T03:52:36.905Z,101388.11
2018-06-04T03:55:06.506Z,101386.84
2018-06-04T03:57:35.687Z,101390.00
2018-06-04T04:00:05.011Z,101380.77
2018-06-04T04:02:33.602Z,101384.36
2018-06-04T04:05:02.341Z,101389.28
2018-06-04T04:07:30.926Z,101376.91
2018-06-04T04:09:59.645Z,101372.56
2018-06-04T04:12:28.435Z,101375.33
2018-06-04T04:14:57.037Z,101377.55
2018-06-04T04:17:25.647Z,101376.25
2018-06-04T04:19:54.260Z,101384.64
2018-06-04T04:22:22.875Z,101375.96
2018-06-04T04:24:51.544Z,101379.05
2018-06-04T04:27:20.207Z,101372.84
2018-06-04T04:29:48.771Z,101376.17
2018-06-04T04:32:17.373Z,101379.41
2018-06-04T04:34:46.077Z,101380.78
2018-06-04T04:37:14.689Z,101378.53
2018-06-04T04:39:43.352Z,101382.90
2018-06-04T04:42:12.009Z,101385.04
2018-06-04T04:44:40.582Z,101383.20
2018-06-04T04:47:09.167Z,101382.30
2018-06-04T04:49:37.745Z,101384.95
2018-06-04T04:52:06.342Z,101388.97
2018-06-04T04:55:02.914Z,101379.69
2018-06-04T04:57:31.605Z,101381.48
2018-06-04T05:00:00.221Z,101378.84
2018-06-04T05:02:28.973Z,101381.52
2018-06-04T05:04:57.623Z,101376.23
2018-06-04T05:07:26.223Z,101380.27
2018-06-04T05:09:54.915Z,101374.08
2018-06-04T05:12:23.628Z,101374.09
2018-06-04T05:14:52.294Z,101376.35
2018-06-04T05:17:21.024Z,101372.39
2018-06-04T05:19:49.677Z,101371.51
2018-06-04T05:22:18.394Z,101368.85
2018-06-04T05:24:47.029Z,101370.68
2018-06-04T05:27:15.682Z,101372.91
2018-06-04T05:29:44.410Z,101375.59
2018-06-04T05:32:13.215Z,101370.73
2018-06-04T05:34:41.894Z,101374.29
2018-06-04T05:37:10.492Z,101366.31
2018-06-04T05:39:39.098Z,101368.09
2018-06-04T05:42:07.736Z,101372.11
2018-06-04T05:44:36.434Z,101373.92
2018-06-04T05:47:05.138Z,101374.38
2018-06-04T05:49:33.809Z,101371.26
2018-06-04T05:52:02.491Z,101373.03
2018-06-04T05:54:31.086Z,101369.50
2018-06-04T05:56:59.745Z,101365.05
2018-06-04T05:59:28.414Z,101369.48
2018-06-04T06:01:57.071Z,101365.02
2018-06-04T06:04:25.922Z,101364.55
2018-06-04T06:06:58.694Z,101355.66
2018-06-04T06:09:27.274Z,101357.86
2018-06-04T06:11:55.962Z,101352.94
2018-06-04T06:14:24.660Z,101348.47
2018-06-04T06:16:53.217Z,101353.32
2018-06-04T06:19:21.926Z,101349.72
2018-06-04T06:21:50.540Z,101347.92
2018-06-04T06:24:19.136Z,101343.50
2018-06-04T06:26:47.888Z,101340.83
2018-06-04T06:29:16.592Z,101335.91
2018-06-04T06:31:45.149Z,101342.10
2018-06-04T06:34:13.853Z,101335.37
2018-06-04T06:36:42.526Z,101340.69
2018-06-04T06:39:11.259Z,101341.13
2018-06-04T06:41:39.862Z,101345.13
2018-06-04T06:44:08.582Z,101344.67
2018-06-04T06:46:37.170Z,101346.39
2018-06-04T06:49:05.817Z,101346.78
2018-06-04T06:51:34.675Z,101353.41
2018-06-04T06:54:03.337Z,101347.16
2018-06-04T06:56:32.021Z,101348.43
2018-06-04T06:59:00.593Z,101349.73
2018-06-04T07:01:29.336Z,101338.98
2018-06-04T07:03:57.954Z,101344.25
2018-06-04T07:06:26.562Z,101340.61
2018-06-04T07:08:55.173Z,101339.18
2018-06-04T07:11:23.790Z,101336.91
2018-06-04T07:13:52.397Z,101334.61
2018-06-04T07:16:20.977Z,101336.75
2018-06-04T07:18:49.677Z,101332.27
2018-06-04T07:21:18.241Z,101330.03
2018-06-04T07:23:46.936Z,101335.75
2018-06-04T07:26:15.524Z,101329.83
2018-06-04T07:28:44.181Z,101333.32
2018-06-04T07:31:12.797Z,101332.80
2018-06-04T07:33:41.424Z,101331.89
2018-06-04T07:36:11.142Z,101329.17
2018-06-04T07:38:41.098Z,101323.72
2018-06-04T07:41:09.704Z,101317.79
2018-06-04T07:43:38.293Z,101321.20
2018-06-04T07:46:17.013Z,101317.06
2018-06-04T07:48:46.320Z,101321.48
2018-06-04T07:51:14.932Z,101328.08
2018-06-04T07:53:43.722Z,101326.17
2018-06-04T07:56:12.287Z,101326.55
2018-06-04T07:58:40.969Z,101318.45
2018-06-04T08:01:09.861Z,101310.81
2018-06-04T08:03:38.612Z,101316.96
2018-06-04T08:06:07.264Z,101316.09
2018-06-04T08:08:35.879Z,101307.52
2018-06-04T08:11:04.537Z,101307.90
2018-06-04T08:13:33.237Z,101310.07
2018-06-04T08:16:01.952Z,101312.25
2018-06-04T08:18:30.569Z,101305.91
2018-06-04T08:20:59.174Z,101301.91
2018-06-04T08:23:27.806Z,101297.89
2018-06-04T08:25:56.483Z,101309.50
2018-06-04T08:28:25.265Z,101304.56
2018-06-04T08:30:53.842Z,101308.51
2018-06-04T08:33:23.179Z,101304.43
2018-06-04T08:35:51.815Z,101310.12
2018-06-04T08:38:20.499Z,101302.50
2018-06-04T08:40:49.118Z,101305.64
2018-06-04T08:43:17.717Z,101300.20
2018-06-04T08:45:46.518Z,101307.35
2018-06-04T08:48:15.253Z,101310.04
2018-06-04T08:50:43.941Z,101304.22
2018-06-04T08:53:12.538Z,101299.60
2018-06-04T08:55:41.133Z,101299.17
2018-06-04T08:58:09.712Z,101294.63
2018-06-04T09:00:38.388Z,101297.17
2018-06-04T09:03:07.062Z,101295.26
2018-06-04T09:05:35.749Z,101288.50
2018-06-04T09:08:09.088Z,101289.78
2018-06-04T09:10:37.827Z,101290.17
2018-06-04T09:13:06.962Z,101300.27
2018-06-04T09:15:35.625Z,101296.92
2018-06-04T09:18:04.277Z,101289.27
2018-06-04T09:20:32.972Z,101289.66
2018-06-04T09:23:01.677Z,101287.37
2018-06-04T09:25:30.253Z,101293.16
2018-06-04T09:27:58.946Z,101289.56
2018-06-04T09:30:27.628Z,101293.06
2018-06-04T09:32:56.317Z,101291.14
2018-06-04T09:35:24.898Z,101295.16
2018-06-04T09:37:53.589Z,101288.81
2018-06-04T09:40:22.263Z,101290.94
2018-06-04T09:42:50.961Z,101285.05
2018-06-04T09:45:19.649Z,101289.43
2018-06-04T09:47:48.364Z,101294.53
2018-06-04T09:50:16.971Z,101289.30
2018-06-04T09:53:21.153Z,101291.23
2018-06-04T09:55:49.835Z,101285.05
2018-06-04T09:58:18.498Z,101287.95
2018-06-04T10:00:47.236Z,101284.89
2018-06-04T10:03:23.890Z,101282.73
2018-06-04T10:05:52.547Z,101279.55
2018-06-04T10:08:22.251Z,101280.27
2018-06-04T10:10:50.956Z,101286.38
2018-06-04T10:13:19.650Z,101285.83
2018-06-04T10:15:48.349Z,101278.40
2018-06-04T10:18:17.114Z,101276.34
2018-06-04T10:20:45.776Z,101278.97
2018-06-04T10:23:14.482Z,101269.94
2018-06-04T10:25:43.194Z,101278.45
2018-06-04T10:28:11.825Z,101275.91
2018-06-04T10:30:40.448Z,101280.58
2018-06-04T10:33:09.855Z,101281.05
2018-06-04T10:35:38.531Z,101279.36
2018-06-04T10:38:07.134Z,101282.75
2018-06-04T10:40:35.824Z,101281.31
2018-06-04T10:43:04.422Z,101284.48
2018-06-04T10:45:33.019Z,101281.58
2018-06-04T10:48:01.662Z,101278.41
2018-06-04T10:50:30.385Z,101282.58
2018-06-04T10:53:00.027Z,101281.84
2018-06-04T10:55:28.686Z,101286.56
2018-06-04T10:57:58.146Z,101276.03
2018-06-04T11:00:26.847Z,101276.50
2018-06-04T11:02:55.498Z,101280.34
2018-06-04T11:05:24.190Z,101273.59
2018-06-04T11:07:52.904Z,101275.35
2018-06-04T11:10:22.197Z,101273.52
2018-06-04T11:12:50.861Z,101267.74
2018-06-04T11:15:19.529Z,101268.72
2018-06-04T11:17:48.374Z,101262.08
2018-06-04T11:20:17.134Z,101259.48
2018-06-04T11:22:45.838Z,101256.48
2018-06-04T11:25:15.671Z,101258.68
2018-06-04T11:27:44.276Z,101263.35
2018-06-04T11:30:12.926Z,101255.02
2018-06-04T11:32:41.512Z,101259.94
2018-06-04T11:35:10.100Z,101255.66
2018-06-04T11:37:38.713Z,101259.28
2018-06-04T11:40:07.431Z,101251.38
2018-06-04T11:42:36.027Z,101252.08
2018-06-04T11:45:04.831Z,101250.86
2018-06-04T11:47:33.490Z,101250.05
2018-06-04T11:50:02.240Z,101249.66
2018-06-04T11:52:30.855Z,101243.76
2018-06-04T11:54:59.530Z,101242.45
2018-06-04T11:57:28.232Z,101248.94
2018-06-04T11:59:56.839Z,101234.83
2018-06-04T12:02:25.515Z,101231.26
2018-06-04T12:04:54.137Z,101228.62
2018-06-04T12:07:22.778Z,101234.43
2018-06-04T12:09:51.460Z,101229.52
2018-06-04T12:12:20.256Z,101236.63
2018-06-04T12:14:48.861Z,101222.96
2018-06-04T12:17:17.498Z,101230.78
2018-06-04T12:19:46.219Z,101226.45
2018-06-04T12:22:14.869Z,101223.82
2018-06-04T12:24:43.444Z,101226.04
2018-06-04T12:27:12.168Z,101220.43
2018-06-04T12:29:40.819Z,101224.46
2018-06-04T12:32:09.414Z,101222.84
2018-06-04T12:34:38.122Z,101224.38
2018-06-04T12:37:06.770Z,101215.59
2018-06-04T12:39:35.352Z,101220.55
2018-06-04T12:42:03.987Z,101220.41
2018-06-04T12:44:32.570Z,101214.57
2018-06-04T12:47:01.229Z,101222.36
2018-06-04T12:49:29.870Z,101219.70
2018-06-04T12:51:58.612Z,101219.55
2018-06-04T12:54:27.317Z,101214.67
2018-06-04T12:56:55.934Z,101217.87
2018-06-04T12:59:24.598Z,101213.23
2018-06-04T13:01:53.257Z,101202.59
2018-06-04T13:04:21.926Z,101198.19
2018-06-04T13:06:50.629Z,101199.39
2018-06-04T13:09:19.284Z,101204.94
2018-06-04T13:11:47.990Z,101195.53
2018-06-04T13:14:16.650Z,101203.81
2018-06-04T13:16:45.440Z,101205.16
2018-06-04T13:19:14.149Z,101202.48
2018-06-04T13:21:42.843Z,101195.84
2018-06-04T13:24:11.444Z,101196.59
2018-06-04T13:26:40.244Z,101191.59
2018-06-04T13:29:08.833Z,101193.11
2018-06-04T13:31:38.203Z,101198.27
2018-06-04T13:34:07.191Z,101193.70
2018-06-04T13:36:35.872Z,101185.58
2018-06-04T13:39:06.957Z,101187.66
2018-06-04T13:41:35.615Z,101176.27
2018-06-04T13:44:07.677Z,101177.84
2018-06-04T13:46:36.313Z,101172.92
2018-06-04T13:49:04.923Z,101172.40
2018-06-04T13:51:33.622Z,101173.80
2018-06-04T13:54:02.297Z,101166.93
2018-06-04T13:56:30.934Z,101171.94
2018-06-04T13:58:59.619Z,101169.98
2018-06-04T14:01:28.328Z,101173.78
2018-06-04T14:03:57.035Z,101166.50
2018-06-04T14:06:25.638Z,101168.02
2018-06-04T14:08:54.304Z,101160.13
2018-06-04T14:11:23.532Z,101154.00
2018-06-04T14:13:52.185Z,101159.64
2018-06-04T14:16:20.807Z,101164.60
2018-06-04T14:18:49.483Z,101160.48
2018-06-04T14:21:19.309Z,101154.27
2018-06-04T14:23:48.480Z,101148.89
2018-06-04T14:26:17.200Z,101151.37
2018-06-04T14:28:46.453Z,101152.30
2018-06-04T14:31:15.748Z,101149.98
2018-06-04T14:33:44.435Z,101147.19
2018-06-04T14:36:13.140Z,101155.02
2018-06-04T14:38:45.920Z,101147.30
2018-06-04T14:41:14.574Z,101148.23
2018-06-04T14:43:43.372Z,101142.92
2018-06-04T14:46:12.082Z,101141.38
2018-06-04T14:48:41.494Z,101148.13
2018-06-04T14:51:10.870Z,101148.19
2018-06-04T14:53:40.469Z,101150.70
2018-06-04T14:56:09.180Z,101147.46
2018-06-04T14:58:37.887Z,101151.15
2018-06-04T15:01:06.734Z,101143.48
2018-06-04T15:03:35.424Z,101145.56
2018-06-04T15:06:04.120Z,101142.95
2018-06-04T15:08:32.716Z,101135.69
2018-06-04T15:11:01.929Z,101142.18
2018-06-04T15:13:51.768Z,101143.34
2018-06-04T15:16:20.620Z,101139.33
2018-06-04T15:18:49.264Z,101137.50
2018-06-04T15:21:17.985Z,101132.45
2018-06-04T15:23:46.623Z,101128.39
2018-06-04T15:26:15.261Z,101123.13
2018-06-04T15:28:43.945Z,101128.05
2018-06-04T15:31:12.584Z,101122.77
2018-06-04T15:33:41.367Z,101117.30
2018-06-04T15:36:10.068Z,101114.82
2018-06-04T15:38:38.669Z,101111.83
2018-06-04T15:41:11.331Z,101118.17
2018-06-04T15:43:40.008Z,101108.42
2018-06-04T15:46:08.676Z,101112.48
2018-06-04T15:48:37.836Z,101111.06
2018-06-04T15:51:06.907Z,101109.13
2018-06-04T15:53:35.483Z,101106.25
2018-06-04T15:56:04.185Z,101107.20
2018-06-04T15:58:32.853Z,101098.69
2018-06-04T16:01:03.625Z,101095.93
2018-06-04T16:03:32.629Z,101095.52
2018-06-04T16:06:04.081Z,101095.22
2018-06-04T16:08:34.636Z,101094.58
2018-06-04T16:11:03.339Z,101093.58
2018-06-04T16:13:31.948Z,101097.22
2018-06-04T16:16:01.233Z,101090.53
2018-06-04T16:18:29.908Z,101081.66
2018-06-04T16:20:59.590Z,101084.25
2018-06-04T16:23:28.230Z,101080.91
2018-06-04T16:25:56.902Z,101080.20
2018-06-04T16:28:25.505Z,101086.45
2018-06-04T16:30:56.780Z,101079.11
2018-06-04T16:33:25.389Z,101080.80
2018-06-04T16:35:54.563Z,101084.96
2018-06-04T16:38:23.410Z,101071.59
2018-06-04T16:40:52.065Z,101064.55
2018-06-04T16:43:20.733Z,101065.37
2018-06-04T16:45:49.576Z,101057.47
2018-06-04T16:48:18.340Z,101060.91
2018-06-04T16:50:47.160Z,101062.50
2018-06-04T16:53:15.796Z,101062.85
2018-06-04T16:55:45.259Z,101062.91
2018-06-04T16:58:13.999Z,101052.71
2018-06-04T17:00:42.710Z,101055.39
2018-06-04T17:03:11.326Z,101054.28
2018-06-04T17:05:39.936Z,101045.42
2018-06-04T17:08:08.702Z,101051.80
2018-06-04T17:10:38.660Z,101049.86
2018-06-04T17:13:07.470Z,101049.39
2018-06-04T17:15:36.098Z,101047.67
2018-06-04T17:18:05.403Z,101044.47
2018-06-04T17:20:34.126Z,101043.97
2018-06-04T17:23:02.815Z,101046.92
2018-06-04T17:25:31.705Z,101039.16
2018-06-04T17:28:00.293Z,101041.17
2018-06-04T17:30:28.998Z,101043.40
2018-06-04T17:32:57.711Z,101048.94
2018-06-04T17:35:26.314Z,101040.81
2018-06-04T17:37:55.124Z,101048.26
2018-06-04T17:40:26.998Z,101044.31
2018-06-04T17:42:55.689Z,101040.80
2018-06-04T17:45:24.470Z,101040.94
2018-06-04T17:47:57.738Z,101047.81
2018-06-04T17:50:26.423Z,101054.30
2018-06-04T17:52:55.231Z,101050.41
2018-06-04T17:55:23.842Z,101052.67
2018-06-04T17:57:53.757Z,101054.22
2018-06-04T18:00:23.244Z,101049.70
2018-06-04T18:02:52.739Z,101054.68
2018-06-04T18:05:21.423Z,101058.47
2018-06-04T18:07:50.083Z,101058.55
2018-06-04T18:10:18.899Z,101062.41
2018-06-04T18:12:47.928Z,101050.11
2018-06-04T18:15:16.780Z,101058.45
2018-06-04T18:17:45.485Z,101066.89
2018-06-04T18:20:15.405Z,101066.73
2018-06-04T18:22:44.517Z,101069.25
2018-06-04T18:25:13.272Z,101066.36
2018-06-04T18:27:42.202Z,101069.58
2018-06-04T18:30:24.053Z,101072.47
2018-06-04T18:32:52.671Z,101081.75
2018-06-04T18:35:21.681Z,101076.97
2018-06-04T18:38:03.133Z,101079.89
2018-06-04T18:40:31.904Z,101083.31
2018-06-04T18:43:00.698Z,101088.34
2018-06-04T18:45:29.414Z,101086.16
2018-06-04T18:47:58.317Z,101087.09
2018-06-04T18:50:27.117Z,101100.56
2018-06-04T18:52:55.797Z,101101.47
2018-06-04T18:55:24.414Z,101096.62
2018-06-04T18:57:53.324Z,101092.23
2018-06-04T19:00:23.971Z,101098.14
2018-06-04T19:02:52.898Z,101104.08
2018-06-04T19:05:21.676Z,101106.47
2018-06-04T19:07:50.652Z,101106.58
2018-06-04T19:10:20.008Z,101104.92
2018-06-04T19:12:49.703Z,101102.36
2018-06-04T19:15:18.670Z,101103.34
2018-06-04T19:17:47.962Z,101105.67
2018-06-04T19:20:17.426Z,101110.23
2018-06-04T19:22:46.283Z,101111.66
2018-06-04T19:25:15.359Z,101114.02
2018-06-04T19:27:45.076Z,101125.25
2018-06-04T19:30:14.125Z,101125.36
2018-06-04T19:32:44.215Z,101133.89
2018-06-04T19:35:13.135Z,101132.64
2018-06-04T19:37:41.763Z,101130.49
2018-06-04T19:40:14.541Z,101135.48
2018-06-04T19:42:43.312Z,101139.63
2018-06-04T19:45:12.845Z,101142.34
2018-06-04T19:47:42.561Z,101146.03
2018-06-04T19:50:11.262Z,101150.59
2018-06-04T19:52:40.043Z,101157.34
2018-06-04T19:55:08.654Z,101162.78
2018-06-04T19:57:37.821Z,101164.21
2018-06-04T20:00:06.630Z,101170.50
2018-06-04T20:02:36.979Z,101170.58
2018-06-04T20:05:05.734Z,101178.69
2018-06-04T20:07:35.317Z,101180.07
2018-06-04T20:10:04.234Z,101178.80
2018-06-04T20:12:32.877Z,101186.41
2018-06-04T20:15:01.802Z,101192.75
2018-06-04T20:17:31.693Z,101196.36
2018-06-04T20:20:00.496Z,101197.33
2018-06-04T20:22:29.352Z,101205.38
2018-06-04T20:24:58.194Z,101205.88
2018-06-04T20:27:26.944Z,101212.16
2018-06-04T20:29:56.671Z,101211.31
2018-06-04T20:32:26.071Z,101210.46
2018-06-04T20:34:54.717Z,101215.34
2018-06-04T20:37:23.976Z,101224.72
2018-06-04T20:39:52.661Z,101225.66
2018-06-04T20:42:21.534Z,101226.59
2018-06-04T20:44:50.586Z,101227.06
2018-06-04T20:47:19.382Z,101228.88
2018-06-04T20:49:48.192Z,101231.56
2018-06-04T20:52:16.965Z,101232.49
2018-06-04T20:54:49.247Z,101233.86
2018-06-04T20:57:17.906Z,101241.45
2018-06-04T20:59:46.670Z,101247.25
2018-06-04T21:02:15.512Z,101248.61
2018-06-04T21:04:44.242Z,101247.75
2018-06-04T21:07:13.997Z,101253.52
2018-06-04T21:09:43.088Z,101251.30
2018-06-04T21:12:11.967Z,101247.33
2018-06-04T21:14:41.117Z,101249.56
2018-06-04T21:17:09.985Z,101251.35
2018-06-04T21:19:39.065Z,101254.47
2018-06-04T21:22:08.023Z,101258.47
2018-06-04T21:24:36.972Z,101245.59
2018-06-04T21:27:05.800Z,101252.70
2018-06-04T21:29:36.014Z,101256.68
2018-06-04T21:32:04.768Z,101261.13
2018-06-04T21:34:33.542Z,101264.23
2018-06-04T21:37:02.175Z,101266.89
2018-06-04T21:39:30.986Z,101268.22
2018-06-04T21:42:00.630Z,101259.35
2018-06-04T21:44:29.416Z,101262.01
2018-06-04T21:46:58.602Z,101268.22
2018-06-04T21:49:34.588Z,101273.55
2018-06-04T21:52:03.549Z,101273.54
2018-06-04T21:54:32.901Z,101281.52
2018-06-04T21:57:02.222Z,101278.81
2018-06-04T21:59:31.790Z,101285.45
2018-06-04T22:02:00.558Z,101286.78
2018-06-04T22:04:29.205Z,101289.88
2018-06-04T22:06:58.586Z,101285.88
2018-06-04T22:09:28.014Z,101287.20
2018-06-04T22:11:56.775Z,101294.28
2018-06-04T22:14:25.661Z,101288.05
2018-06-04T22:16:54.631Z,101290.25
2018-06-04T22:19:23.503Z,101286.23
2018-06-04T22:21:52.100Z,101282.23
2018-06-04T22:24:20.791Z,101286.66
2018-06-04T22:26:49.398Z,101285.76
2018-06-04T22:29:17.990Z,101280.42
2018-06-04T22:31:46.684Z,101279.09
2018-06-04T22:34:17.484Z,101285.72
2018-06-04T22:36:46.162Z,101287.91
2018-06-04T22:39:14.874Z,101292.77
2018-06-04T22:41:43.541Z,101290.95
2018-06-04T22:44:12.870Z,101286.94
2018-06-04T22:46:41.534Z,101289.59
2018-06-04T22:49:10.226Z,101288.69
2018-06-04T22:51:38.919Z,101286.91
2018-06-04T22:54:07.606Z,101283.77
2018-06-04T22:56:36.974Z,101288.63
2018-06-04T22:59:07.337Z,101282.37
2018-06-04T23:01:35.917Z,101285.91
2018-06-04T23:04:04.579Z,101293.42
2018-06-04T23:06:33.256Z,101292.07
2018-06-04T23:09:01.954Z,101283.19
2018-06-04T23:11:30.597Z,101288.05
2018-06-04T23:13:59.187Z,101277.85
2018-06-04T23:16:27.789Z,101281.81
2018-06-04T23:18:56.501Z,101274.70
2018-06-04T23:21:25.178Z,101287.08
2018-06-04T23:23:53.900Z,101283.09
2018-06-04T23:26:23.170Z,101286.62
2018-06-04T23:28:51.969Z,101290.58
2018-06-04T23:31:20.649Z,101292.34
2018-06-04T23:33:49.323Z,101294.55
2018-06-04T23:36:18.013Z,101287.87
2018-06-04T23:38:46.693Z,101275.89
2018-06-04T23:41:15.293Z,101282.50
2018-06-04T23:43:43.961Z,101274.96
2018-06-04T23:46:12.656Z,101281.58
2018-06-04T23:48:41.254Z,101276.70
2018-06-04T23:51:09.933Z,101270.94
2018-06-04T23:53:38.629Z,101270.03
2018-06-04T23:56:07.297Z,101264.70
2018-06-04T23:58:35.995Z,101261.13
